Terminal Aerodrome Forecast
Issued by NWS Newport/Morehead City, NC

Home | Current Version | Previous Version | Text Only | Print | Product List | Glossary Off
Versions: 1 2 3 4 5 6 7 8 9 10 11 12 13 14 15 16

000
FTUS42 KMHX 181734
TAFEWN
TAF
KEWN 181734Z 1818/1918 09004KT P6SM SCT045 BKN150
     FM182100 VRB04KT P6SM VCSH SCT045 BKN150
     FM190100 VRB03KT P6SM BKN200
     FM190600 00000KT 4SM BR SCT002 BKN200
     FM190800 00000KT 2SM BR SCT002 SCT200
     FM191230 00000KT P6SM SCT250=

USA.gov is the U.S. government's official web portal to all federal, state and local government web resources and services.